createdAt,value
2023-01-04T07:25:42.942Z,16.55
2023-01-04T07:29:04.947Z,18.70
2023-01-04T07:32:13.660Z,17.75
2023-01-04T07:35:18.647Z,18.25
2023-01-04T07:38:21.907Z,10.88
2023-01-04T07:41:25.155Z,12.70
2023-01-04T07:44:28.332Z,13.82
2023-01-04T07:47:31.803Z,13.38
2023-01-04T07:50:35.645Z,12.02
2023-01-04T07:53:38.794Z,14.68
2023-01-04T07:56:41.748Z,12.90
2023-01-04T07:59:45.018Z,15.88
2023-01-04T08:02:49.949Z,14.98
2023-01-04T08:05:53.092Z,16.80
2023-01-04T08:08:55.995Z,15.52
2023-01-04T08:11:59.204Z,15.20
2023-01-04T08:15:21.848Z,16.12
2023-01-04T08:18:30.033Z,15.68
2023-01-04T08:21:35.872Z,14.95
2023-01-04T08:25:02.892Z,14.43
2023-01-04T08:28:22.591Z,12.98
2023-01-04T08:31:29.153Z,12.23
2023-01-04T08:34:32.187Z,12.75
2023-01-04T08:37:57.281Z,10.88
2023-01-04T08:41:46.743Z,9.65
2023-01-04T08:44:37.727Z,9.75
2023-01-04T08:47:44.767Z,10.27
2023-01-04T08:50:50.631Z,11.02
2023-01-04T08:54:02.084Z,10.95
2023-01-04T08:57:07.745Z,11.48
2023-01-04T09:00:12.290Z,11.73
2023-01-04T09:03:36.351Z,11.00
2023-01-04T09:06:39.498Z,11.65
2023-01-04T09:09:43.149Z,13.05
2023-01-04T09:12:47.911Z,12.43
2023-01-04T09:15:51.553Z,15.07
2023-01-04T09:18:57.142Z,15.05
2023-01-04T09:22:00.777Z,13.10
2023-01-04T09:39:51.910Z,13.25
2023-01-04T09:43:20.268Z,11.93
2023-01-04T09:46:31.073Z,12.50
2023-01-04T09:50:12.896Z,10.88
2023-01-04T09:53:43.444Z,11.55
2023-01-04T09:56:56.084Z,11.07
2023-01-04T10:00:16.377Z,11.48
2023-01-04T10:03:25.977Z,11.73
2023-01-04T10:06:29.238Z,11.07
2023-01-04T10:09:42.904Z,10.50
2023-01-04T10:13:13.316Z,12.23
2023-01-04T10:24:11.033Z,10.77
2023-01-04T10:27:17.173Z,10.98
2023-01-04T10:30:47.797Z,10.40
2023-01-04T10:34:02.371Z,9.90
2023-01-04T10:37:13.698Z,12.30
2023-01-04T10:40:19.957Z,11.60
2023-01-04T10:44:11.816Z,9.27
2023-01-04T10:47:40.834Z,9.43
2023-01-04T10:50:46.541Z,10.85
2023-01-04T10:53:57.654Z,11.63
2023-01-04T10:57:21.273Z,12.18
2023-01-04T11:00:38.485Z,10.18
2023-01-04T11:03:58.697Z,11.27
2023-01-04T11:07:16.863Z,13.62
2023-01-04T11:10:29.558Z,14.68
2023-01-04T11:13:33.619Z,14.15
2023-01-04T11:16:38.125Z,15.73
2023-01-04T11:19:42.862Z,18.85
2023-01-04T11:22:48.399Z,16.02
2023-01-04T11:25:56.988Z,14.85
2023-01-04T11:29:09.735Z,14.30
2023-01-04T11:32:47.288Z,15.00
2023-01-04T11:35:59.585Z,14.82
2023-01-04T11:39:03.971Z,13.82
2023-01-04T11:42:19.114Z,16.77
2023-01-04T11:45:27.928Z,16.87
2023-01-04T11:48:37.215Z,15.27
2023-01-04T11:51:41.005Z,15.80
2023-01-04T11:54:43.750Z,15.40
2023-01-04T11:57:48.267Z,15.38
2023-01-04T12:00:55.197Z,16.15
2023-01-04T12:03:59.246Z,15.77
2023-01-04T12:07:15.668Z,16.08
2023-01-04T12:10:26.731Z,15.68
2023-01-04T12:13:35.027Z,16.65
2023-01-04T12:16:53.139Z,17.10
2023-01-04T12:19:57.419Z,15.93
2023-01-04T12:23:00.446Z,15.07
2023-01-04T12:26:03.468Z,14.90
2023-01-04T12:29:24.884Z,14.50
2023-01-04T12:32:27.588Z,14.75
2023-01-04T12:36:09.715Z,14.05
2023-01-04T12:39:12.340Z,12.68
2023-01-04T12:42:19.725Z,12.10
2023-01-04T12:45:32.344Z,11.73
2023-01-04T12:48:55.915Z,11.88
2023-01-04T12:55:36.743Z,10.90
2023-01-04T13:25:03.919Z,7.00
2023-01-04T13:28:18.440Z,6.97
2023-01-04T13:31:28.808Z,6.78
2023-01-04T13:35:03.658Z,7.68
2023-01-04T13:42:01.715Z,5.70
2023-01-04T13:46:06.006Z,5.47
2023-01-04T13:49:15.936Z,5.15
2023-01-04T15:04:15.686Z,8.20
2023-01-04T15:07:44.943Z,7.85
2023-01-04T15:10:51.124Z,7.70
2023-01-04T15:13:57.224Z,8.67
2023-01-04T15:17:20.246Z,7.95
2023-01-04T15:20:23.645Z,9.90
2023-01-04T15:23:29.013Z,8.77
2023-01-04T15:26:40.470Z,7.93
2023-01-04T16:00:11.706Z,12.02
2023-01-04T16:03:14.664Z,17.02
2023-01-04T16:06:22.049Z,13.82
2023-01-04T16:09:25.321Z,10.40
2023-01-04T16:12:45.964Z,11.43
2023-01-04T16:15:54.571Z,10.75
2023-01-04T16:18:58.088Z,17.37
2023-01-04T16:22:02.609Z,12.32
2023-01-04T16:25:11.537Z,9.13
2023-01-04T16:28:14.731Z,7.18
2023-01-04T16:31:18.462Z,7.12
2023-01-04T16:34:24.569Z,11.15
2023-01-04T16:48:35.039Z,6.93
2023-01-04T16:51:40.679Z,7.07
2023-01-04T17:06:44.848Z,8.88
2023-01-04T17:09:51.470Z,7.12
2023-01-04T17:12:54.352Z,7.57
2023-01-04T17:16:01.428Z,7.40
2023-01-04T17:26:34.720Z,8.55
2023-01-04T17:29:44.649Z,49.70
2023-01-04T17:36:21.884Z,28.50
2023-01-04T17:39:26.960Z,15.70
2023-01-04T17:42:33.031Z,14.30
2023-01-04T17:45:36.266Z,9.75
2023-01-04T17:48:39.648Z,7.90
2023-01-04T17:51:54.591Z,8.18
2023-01-04T17:54:57.584Z,7.47
2023-01-04T17:58:02.343Z,7.93
2023-01-04T18:01:14.419Z,7.05
2023-01-04T18:04:17.766Z,7.70
2023-01-04T18:07:25.522Z,7.70
2023-01-04T18:10:41.290Z,7.95
2023-01-04T18:14:14.833Z,7.95
2023-01-04T18:17:18.213Z,11.90
2023-01-04T18:20:25.114Z,10.98
2023-01-04T18:23:29.596Z,8.90
2023-01-04T18:26:53.459Z,9.77
2023-01-04T18:29:57.440Z,8.73
2023-01-04T18:33:00.311Z,8.43
2023-01-04T18:36:05.153Z,8.80
2023-01-04T18:39:08.047Z,8.85
2023-01-04T18:42:11.381Z,8.57
2023-01-04T18:45:14.934Z,7.97
2023-01-04T18:48:18.479Z,8.82
2023-01-04T18:51:22.113Z,8.88
2023-01-04T18:54:25.721Z,8.85
2023-01-04T18:57:28.785Z,9.73
2023-01-04T19:00:32.147Z,14.98
2023-01-04T19:07:55.556Z,11.45
2023-01-04T19:10:59.562Z,11.10
2023-01-04T19:14:04.255Z,11.25
2023-01-04T19:29:11.606Z,8.77
2023-01-04T19:32:23.337Z,8.95
2023-01-04T19:35:28.710Z,8.32
2023-01-04T19:38:51.317Z,8.13
2023-01-04T19:41:54.355Z,8.52
2023-01-04T19:44:58.743Z,8.27
2023-01-04T19:48:01.764Z,10.18
2023-01-04T19:51:10.705Z,10.07
2023-01-04T19:54:14.411Z,8.65
2023-01-04T19:57:18.474Z,9.18
2023-01-04T20:00:22.839Z,8.68
2023-01-04T20:07:05.381Z,9.63
2023-01-04T20:10:40.201Z,9.23
2023-01-04T20:18:17.732Z,9.93
2023-01-04T20:29:30.306Z,9.25
2023-01-04T20:54:07.157Z,8.48
2023-01-04T20:57:14.218Z,9.50
2023-01-04T21:00:54.304Z,9.52
2023-01-04T21:04:46.235Z,8.80
2023-01-04T21:12:08.090Z,10.75
2023-01-04T21:15:45.160Z,9.05
2023-01-04T21:19:19.628Z,9.10
2023-01-04T21:26:53.553Z,8.95
2023-01-04T21:30:28.088Z,11.23
2023-01-04T21:34:16.062Z,11.38
2023-01-04T21:37:47.207Z,11.43
2023-01-04T21:41:30.851Z,8.25
2023-01-04T21:45:08.469Z,10.52
2023-01-04T21:49:01.556Z,9.00
2023-01-04T21:52:53.044Z,8.23
2023-01-04T21:56:22.961Z,9.93
2023-01-04T22:00:00.250Z,9.25
2023-01-04T22:04:05.858Z,9.45
2023-01-04T22:07:48.390Z,9.13
2023-01-04T22:11:33.980Z,8.85
2023-01-04T22:14:37.252Z,9.60
2023-01-04T22:17:40.121Z,8.75
2023-01-04T22:20:43.438Z,9.05
2023-01-04T22:23:46.359Z,9.70
2023-01-04T22:26:50.728Z,9.05
2023-01-04T22:29:53.531Z,8.70
2023-01-04T22:32:56.696Z,8.25
2023-01-04T22:35:59.492Z,9.05
2023-01-04T22:39:02.958Z,8.30
2023-01-04T22:42:05.844Z,9.57
2023-01-04T22:45:13.186Z,9.02
2023-01-04T22:48:16.151Z,9.65
2023-01-04T22:51:20.524Z,10.02
2023-01-04T22:54:23.985Z,9.80
2023-01-04T22:57:28.046Z,9.50
2023-01-04T23:00:30.942Z,9.10
2023-01-04T23:03:35.133Z,8.38
2023-01-04T23:06:38.590Z,8.48
2023-01-04T23:09:41.902Z,9.00
2023-01-04T23:12:45.389Z,8.70
2023-01-04T23:15:48.522Z,8.95
2023-01-04T23:18:51.447Z,8.57
2023-01-04T23:21:54.621Z,8.50
2023-01-04T23:24:57.389Z,9.93
2023-01-04T23:28:00.587Z,10.15
2023-01-04T23:31:05.477Z,9.05
2023-01-04T23:34:11.777Z,9.25
2023-01-04T23:37:14.577Z,9.68
2023-01-04T23:40:17.798Z,8.43
2023-01-04T23:43:20.640Z,8.07
2023-01-04T23:46:23.906Z,9.13
2023-01-04T23:49:29.761Z,8.88
2023-01-04T23:52:39.604Z,8.80
2023-01-04T23:55:42.474Z,7.80
2023-01-04T23:58:47.077Z,8.40
